createdAt,value
2023-01-17T00:02:21.359Z,59.10
2023-01-17T00:05:07.322Z,53.35
2023-01-17T00:07:53.362Z,49.45
2023-01-17T00:10:23.635Z,52.85
2023-01-17T00:12:54.188Z,54.47
2023-01-17T00:15:23.660Z,49.58
2023-01-17T00:17:51.961Z,46.60
2023-01-17T00:20:49.368Z,47.63
2023-01-17T00:23:38.678Z,48.95
2023-01-17T00:26:11.828Z,54.28
2023-01-17T00:28:41.437Z,49.83
2023-01-17T00:31:10.443Z,50.28
2023-01-17T00:33:38.611Z,47.70
2023-01-17T00:36:06.804Z,50.47
2023-01-17T00:38:37.122Z,47.20
2023-01-17T00:41:12.354Z,44.33
2023-01-17T00:43:59.016Z,45.53
2023-01-17T00:46:45.265Z,45.42
2023-01-17T00:49:31.337Z,45.83
2023-01-17T00:52:17.262Z,46.70
2023-01-17T00:55:03.236Z,44.83
2023-01-17T00:57:49.097Z,44.92
2023-01-17T01:00:37.477Z,50.78
2023-01-17T01:03:28.686Z,49.30
2023-01-17T01:06:14.688Z,47.67
2023-01-17T01:09:00.531Z,45.65
2023-01-17T01:11:46.560Z,49.28
2023-01-17T01:14:32.297Z,46.80
2023-01-17T01:17:18.551Z,50.40
2023-01-17T01:20:04.510Z,51.30
2023-01-17T01:22:50.604Z,57.45
2023-01-17T01:25:36.480Z,48.97
2023-01-17T01:28:24.774Z,53.60
2023-01-17T01:31:10.757Z,53.63
2023-01-17T01:33:38.395Z,51.45
2023-01-17T01:36:08.388Z,52.08
2023-01-17T01:38:36.351Z,56.72
2023-01-17T01:41:04.345Z,52.25
2023-01-17T01:43:48.785Z,52.78
2023-01-17T01:46:39.939Z,53.47
2023-01-17T01:49:22.129Z,48.70
2023-01-17T01:51:58.485Z,49.88
2023-01-17T01:54:32.525Z,50.92
2023-01-17T01:57:03.553Z,54.03
2023-01-17T01:59:34.053Z,42.83
2023-01-17T02:02:01.817Z,50.05
2023-01-17T02:04:29.691Z,56.33
2023-01-17T02:07:04.114Z,49.88
2023-01-17T02:09:31.933Z,52.83
2023-01-17T02:11:59.516Z,51.55
2023-01-17T02:14:27.064Z,46.53
2023-01-17T02:17:14.683Z,45.20
2023-01-17T02:20:09.971Z,47.72
2023-01-17T02:23:02.042Z,55.03
2023-01-17T02:26:17.818Z,50.13
2023-01-17T02:29:33.041Z,42.58
2023-01-17T02:32:42.070Z,55.35
2023-01-17T02:35:36.470Z,48.03
2023-01-17T02:38:36.927Z,46.90
2023-01-17T02:41:07.841Z,48.45
2023-01-17T02:43:37.640Z,49.88
2023-01-17T02:46:05.029Z,42.15
2023-01-17T02:48:35.962Z,44.65
2023-01-17T02:51:40.943Z,48.72
2023-01-17T02:54:55.584Z,47.65
2023-01-17T02:57:40.925Z,48.28
2023-01-17T03:00:08.545Z,52.10
2023-01-17T03:02:49.927Z,46.90
2023-01-17T03:05:30.351Z,55.30
2023-01-17T03:07:58.609Z,50.28
2023-01-17T03:10:26.458Z,50.30
2023-01-17T03:12:58.648Z,56.40
2023-01-17T03:15:26.937Z,60.05
2023-01-17T03:17:58.530Z,59.58
2023-01-17T03:20:26.780Z,53.47
2023-01-17T03:22:53.988Z,57.17
2023-01-17T03:25:21.506Z,55.67
2023-01-17T03:27:49.008Z,56.50
2023-01-17T03:30:17.786Z,53.92
2023-01-17T03:32:45.002Z,66.63
2023-01-17T03:35:12.600Z,55.85
2023-01-17T03:37:39.873Z,56.85
2023-01-17T03:40:08.201Z,54.72
2023-01-17T03:42:35.433Z,56.55
2023-01-17T03:45:03.032Z,53.05
2023-01-17T03:47:30.637Z,59.58
2023-01-17T03:49:58.194Z,61.78
2023-01-17T03:52:25.466Z,66.82
2023-01-17T03:54:52.980Z,63.97
2023-01-17T03:57:20.242Z,64.38
2023-01-17T03:59:48.735Z,63.78
2023-01-17T04:02:16.070Z,76.95
2023-01-17T04:04:43.860Z,65.10
2023-01-17T04:07:11.217Z,74.47
2023-01-17T04:09:38.731Z,60.30
2023-01-17T04:12:06.089Z,67.50
2023-01-17T04:14:33.650Z,69.28
2023-01-17T04:17:01.558Z,67.45
2023-01-17T04:19:30.156Z,66.45
2023-01-17T04:21:57.607Z,65.25
2023-01-17T04:24:25.220Z,65.18
2023-01-17T04:26:52.751Z,64.90
2023-01-17T04:29:20.328Z,70.15
2023-01-17T04:31:48.765Z,63.13
2023-01-17T04:34:16.318Z,70.82
2023-01-17T04:36:43.566Z,85.25
2023-01-17T04:39:11.227Z,81.80
2023-01-17T04:41:38.666Z,77.22
2023-01-17T04:44:06.228Z,63.17
2023-01-17T04:46:33.686Z,75.53
2023-01-17T04:49:01.265Z,60.92
2023-01-17T04:51:28.549Z,71.40
2023-01-17T04:53:56.244Z,213.27
2023-01-17T04:56:23.529Z,88.65
2023-01-17T04:58:51.076Z,64.72
2023-01-17T05:01:18.378Z,63.00
2023-01-17T05:03:46.005Z,63.03
2023-01-17T05:06:13.212Z,74.32
2023-01-17T05:08:40.815Z,78.30
2023-01-17T05:11:08.177Z,72.65
2023-01-17T05:13:35.734Z,74.38
2023-01-17T05:16:03.113Z,88.15
2023-01-17T05:18:30.706Z,85.80
2023-01-17T05:21:04.382Z,64.80
2023-01-17T05:23:33.062Z,63.17
2023-01-17T05:26:00.309Z,65.95
2023-01-17T05:28:27.960Z,60.55
2023-01-17T05:30:55.200Z,74.65
2023-01-17T05:33:22.769Z,63.28
2023-01-17T05:35:50.048Z,71.70
2023-01-17T05:38:17.667Z,77.15
2023-01-17T05:40:44.917Z,76.60
2023-01-17T05:43:12.436Z,61.67
2023-01-17T05:45:39.651Z,69.00
2023-01-17T05:48:08.098Z,63.60
2023-01-17T05:50:37.857Z,71.18
2023-01-17T05:53:11.602Z,71.35
2023-01-17T05:55:39.532Z,65.65
2023-01-17T05:58:09.017Z,66.55
2023-01-17T06:00:37.814Z,65.35
2023-01-17T06:03:05.457Z,69.45
2023-01-17T06:05:32.881Z,69.28
2023-01-17T06:08:00.645Z,68.18
2023-01-17T06:10:29.536Z,65.70
2023-01-17T06:13:12.716Z,65.72
2023-01-17T06:15:40.432Z,60.53
2023-01-17T06:18:13.053Z,60.70
2023-01-17T06:20:41.428Z,59.08
2023-01-17T06:23:14.211Z,60.30
2023-01-17T06:25:45.156Z,57.05
2023-01-17T06:28:14.853Z,56.33
2023-01-17T06:30:44.057Z,55.05
2023-01-17T06:33:11.940Z,57.33
2023-01-17T06:35:44.364Z,52.78
2023-01-17T06:38:11.613Z,51.10
2023-01-17T06:40:39.177Z,57.65
2023-01-17T06:43:06.512Z,56.17
2023-01-17T06:45:35.479Z,57.67
2023-01-17T06:48:05.239Z,55.85
2023-01-17T06:50:34.342Z,57.67
2023-01-17T06:53:04.795Z,57.78
2023-01-17T06:55:33.954Z,60.65
2023-01-17T06:58:03.078Z,62.72
2023-01-17T07:00:31.956Z,58.47
2023-01-17T07:02:59.317Z,58.97
2023-01-17T07:05:28.524Z,66.40
2023-01-17T07:07:55.955Z,57.53
2023-01-17T07:10:23.702Z,59.40
2023-01-17T07:12:51.524Z,66.35
2023-01-17T07:15:19.102Z,70.78
2023-01-17T07:17:46.375Z,66.32
2023-01-17T07:20:13.955Z,74.18
2023-01-17T07:22:45.047Z,80.50
2023-01-17T07:25:12.999Z,79.50
2023-01-17T07:27:40.301Z,80.30
2023-01-17T07:30:09.129Z,84.78
2023-01-17T07:32:37.365Z,82.88
2023-01-17T07:35:05.997Z,75.75
2023-01-17T07:37:33.319Z,83.35
2023-01-17T07:40:02.600Z,87.45
2023-01-17T07:42:29.883Z,83.65
2023-01-17T07:44:57.405Z,88.05
2023-01-17T07:47:24.957Z,79.70
2023-01-17T07:49:52.486Z,86.10
2023-01-17T07:52:19.683Z,78.20
2023-01-17T07:54:47.220Z,87.18
2023-01-17T07:57:14.517Z,85.35
2023-01-17T07:59:42.009Z,89.63
2023-01-17T08:02:19.977Z,96.03
2023-01-17T08:04:48.421Z,87.63
2023-01-17T08:07:16.168Z,90.32
2023-01-17T08:09:44.098Z,88.07
2023-01-17T08:12:11.343Z,87.63
2023-01-17T08:14:38.903Z,82.45
2023-01-17T08:17:11.338Z,84.05
2023-01-17T08:19:39.096Z,88.03
2023-01-17T08:22:06.750Z,80.95
2023-01-17T08:24:34.627Z,81.90
2023-01-17T08:27:01.924Z,77.60
2023-01-17T08:29:29.799Z,83.93
2023-01-17T08:31:57.175Z,77.97
2023-01-17T08:34:24.858Z,75.95
2023-01-17T08:36:55.544Z,75.00
2023-01-17T08:39:23.224Z,67.73
2023-01-17T08:41:50.499Z,69.30
2023-01-17T08:44:20.103Z,70.47
2023-01-17T08:46:47.362Z,69.22
2023-01-17T08:49:15.071Z,67.32
2023-01-17T08:51:42.461Z,64.72
2023-01-17T08:54:13.027Z,64.28
2023-01-17T08:56:40.349Z,59.25
2023-01-17T08:59:09.562Z,66.15
2023-01-17T09:01:40.868Z,67.43
2023-01-17T09:04:09.286Z,63.45
2023-01-17T09:06:38.326Z,64.80
2023-01-17T09:09:07.439Z,59.88
2023-01-17T09:11:34.920Z,59.92
2023-01-17T09:14:02.935Z,58.55
2023-01-17T09:16:30.834Z,53.35
2023-01-17T09:18:59.393Z,50.13
2023-01-17T09:21:27.241Z,57.40
2023-01-17T09:23:56.054Z,50.97
2023-01-17T09:26:27.377Z,51.58
2023-01-17T09:28:55.635Z,48.45
2023-01-17T09:31:23.885Z,52.28
2023-01-17T09:33:52.121Z,52.50
2023-01-17T09:36:19.734Z,52.85
2023-01-17T09:38:47.788Z,51.15
2023-01-17T09:41:31.471Z,51.30
2023-01-17T09:44:24.149Z,45.47
2023-01-17T09:49:31.960Z,45.95
2023-01-17T09:52:00.087Z,45.78
2023-01-17T09:54:37.100Z,44.03
2023-01-17T09:57:13.467Z,44.20
2023-01-17T10:00:08.574Z,43.60
2023-01-17T10:02:38.814Z,42.70
2023-01-17T10:05:16.416Z,41.92
2023-01-17T10:07:46.592Z,41.38
2023-01-17T10:10:36.097Z,39.05
2023-01-17T10:13:28.862Z,41.38
2023-01-17T10:16:31.233Z,41.45
2023-01-17T10:19:01.809Z,41.78
2023-01-17T10:21:35.577Z,37.58
2023-01-17T10:24:16.382Z,36.72
2023-01-17T10:26:49.531Z,28.97
2023-01-17T10:29:20.945Z,37.30
2023-01-17T10:31:58.151Z,38.75
2023-01-17T10:34:34.431Z,37.80
2023-01-17T10:37:16.103Z,39.75
2023-01-17T10:39:46.865Z,38.28
2023-01-17T10:42:21.969Z,34.27
2023-01-17T10:44:58.335Z,35.88
2023-01-17T10:47:30.945Z,37.25
2023-01-17T10:49:59.564Z,36.60
2023-01-17T10:52:27.225Z,32.22
2023-01-17T10:55:22.577Z,35.45
2023-01-17T10:57:51.269Z,35.33
2023-01-17T11:00:44.429Z,37.65
2023-01-17T11:03:13.886Z,34.72
2023-01-17T11:05:42.974Z,34.75
2023-01-17T11:08:15.853Z,31.95
2023-01-17T11:10:56.609Z,34.08
2023-01-17T11:13:31.139Z,36.50
2023-01-17T11:16:08.938Z,30.55
2023-01-17T11:18:40.254Z,36.17
2023-01-17T11:21:21.318Z,31.20
2023-01-17T11:23:56.815Z,31.60
2023-01-17T11:26:30.710Z,37.40
2023-01-17T11:29:27.183Z,34.60
2023-01-17T11:31:56.335Z,32.53
2023-01-17T11:34:26.557Z,30.50
2023-01-17T11:37:18.459Z,32.35
2023-01-17T11:39:49.880Z,30.17
2023-01-17T11:42:35.106Z,26.27
2023-01-17T11:45:23.791Z,27.45
2023-01-17T11:48:09.562Z,27.42
2023-01-17T11:50:44.174Z,29.20
2023-01-17T11:53:21.546Z,27.75
2023-01-17T11:55:55.181Z,28.58
2023-01-17T11:58:24.197Z,28.70
2023-01-17T12:01:27.868Z,28.63
2023-01-17T12:04:01.059Z,25.95
2023-01-17T12:06:58.462Z,26.25
2023-01-17T12:09:48.072Z,24.17
2023-01-17T12:12:45.300Z,22.88
2023-01-17T12:15:23.711Z,25.67
2023-01-17T12:18:16.380Z,23.90
2023-01-17T12:20:56.555Z,24.77
2023-01-17T12:23:36.487Z,23.70
2023-01-17T12:26:19.745Z,23.65
2023-01-17T12:29:42.210Z,22.85
2023-01-17T12:32:19.620Z,25.40
2023-01-17T12:34:57.236Z,22.30
2023-01-17T12:37:39.769Z,23.55
2023-01-17T12:40:13.482Z,22.17
2023-01-17T12:42:48.665Z,23.08
2023-01-17T12:45:26.369Z,23.35
2023-01-17T12:48:06.013Z,20.83
2023-01-17T12:50:40.470Z,22.27
2023-01-17T12:53:26.412Z,25.70
2023-01-17T12:56:14.305Z,21.77
2023-01-17T12:58:45.804Z,19.60
2023-01-17T13:01:30.348Z,21.50
2023-01-17T13:04:06.754Z,20.45
2023-01-17T13:07:06.433Z,20.58
2023-01-17T13:09:42.993Z,19.88
2023-01-17T13:12:15.264Z,19.90
2023-01-17T13:14:42.675Z,24.05
2023-01-17T13:17:19.437Z,16.23
2023-01-17T13:20:01.086Z,16.73
2023-01-17T13:22:30.138Z,16.45
2023-01-17T13:24:57.324Z,16.63
2023-01-17T13:28:08.257Z,15.57
2023-01-17T13:30:54.190Z,16.13
2023-01-17T13:33:30.826Z,16.10
2023-01-17T13:36:16.824Z,15.98
2023-01-17T13:39:07.523Z,16.77
2023-01-17T13:41:34.724Z,16.23
2023-01-17T13:44:21.568Z,15.60
2023-01-17T13:47:08.202Z,15.10
2023-01-17T13:49:43.884Z,16.38
2023-01-17T13:52:20.078Z,16.88
2023-01-17T13:54:48.997Z,14.90
2023-01-17T13:57:40.090Z,14.43
2023-01-17T14:00:22.103Z,14.97
2023-01-17T14:02:51.418Z,14.20
2023-01-17T14:05:42.718Z,11.40
2023-01-17T14:08:18.327Z,10.05
2023-01-17T14:10:52.042Z,15.23
2023-01-17T14:13:37.542Z,11.40
2023-01-17T14:16:31.516Z,14.52
2023-01-17T14:18:58.968Z,15.93
2023-01-17T14:21:31.731Z,15.60
2023-01-17T14:24:06.414Z,13.70
2023-01-17T14:26:56.962Z,13.40
2023-01-17T14:29:42.807Z,15.50
2023-01-17T14:32:13.312Z,15.23
2023-01-17T14:34:40.907Z,16.80
2023-01-17T14:37:29.862Z,15.90
2023-01-17T14:39:57.325Z,14.63
2023-01-17T14:42:28.368Z,13.65
2023-01-17T14:45:08.296Z,13.70
2023-01-17T14:47:41.625Z,13.70
2023-01-17T14:50:17.909Z,14.57
2023-01-17T14:52:46.249Z,12.40
2023-01-17T14:55:20.607Z,13.43
2023-01-17T14:57:58.580Z,13.43
2023-01-17T15:00:29.323Z,15.13
2023-01-17T15:02:59.515Z,9.77
2023-01-17T15:05:29.698Z,11.73
2023-01-17T15:07:58.354Z,11.35
2023-01-17T15:10:30.422Z,12.52
2023-01-17T15:13:05.793Z,12.23
2023-01-17T15:15:38.348Z,10.50
2023-01-17T15:18:14.797Z,9.40
2023-01-17T15:20:46.460Z,10.60
2023-01-17T15:25:48.771Z,9.15
2023-01-17T15:28:17.000Z,11.30
2023-01-17T15:31:03.749Z,10.88
2023-01-17T15:33:34.051Z,9.38
2023-01-17T15:36:08.264Z,10.27
2023-01-17T15:38:39.580Z,8.57
2023-01-17T15:41:15.878Z,6.33
2023-01-17T15:43:45.141Z,6.07
2023-01-17T15:46:28.711Z,7.05
2023-01-17T15:49:26.228Z,5.22
2023-01-17T15:51:57.240Z,7.60
2023-01-17T15:54:50.586Z,4.22
2023-01-17T15:57:28.288Z,6.25
2023-01-17T16:00:01.096Z,6.25
2023-01-17T16:02:43.304Z,8.40
2023-01-17T16:05:31.164Z,5.70
2023-01-17T16:08:31.800Z,6.20
2023-01-17T16:11:02.800Z,7.82
2023-01-17T16:13:32.745Z,7.63
2023-01-17T16:16:21.270Z,8.30
2023-01-17T16:18:52.746Z,9.38
2023-01-17T16:21:26.443Z,9.57
2023-01-17T16:23:54.592Z,8.23
2023-01-17T16:26:23.083Z,11.88
2023-01-17T16:28:50.639Z,9.57
2023-01-17T16:31:18.438Z,9.63
2023-01-17T16:33:48.421Z,10.15
2023-01-17T16:36:16.745Z,8.48
2023-01-17T16:38:45.823Z,10.63
2023-01-17T16:41:13.578Z,11.82
2023-01-17T16:43:40.980Z,14.07
2023-01-17T16:46:12.102Z,11.00
2023-01-17T16:48:39.402Z,14.68
2023-01-17T16:51:08.145Z,10.95
2023-01-17T16:53:35.890Z,12.95
2023-01-17T16:56:12.094Z,12.43
2023-01-17T16:58:40.234Z,9.27
2023-01-17T17:01:15.982Z,10.88
2023-01-17T17:03:44.849Z,11.73
2023-01-17T17:06:13.664Z,14.50
2023-01-17T17:08:41.116Z,10.55
2023-01-17T17:11:14.579Z,9.77
2023-01-17T17:13:44.656Z,13.15
2023-01-17T17:16:15.129Z,11.68
2023-01-17T17:18:43.522Z,10.65
2023-01-17T17:21:11.779Z,11.80
2023-01-17T17:23:39.302Z,11.95
2023-01-17T17:26:06.841Z,9.98
2023-01-17T17:28:34.359Z,9.55
2023-01-17T17:31:12.493Z,8.68
2023-01-17T17:33:40.129Z,6.85
2023-01-17T17:36:10.305Z,9.30
2023-01-17T17:38:53.633Z,8.88
2023-01-17T17:41:29.739Z,7.78
2023-01-17T17:43:57.508Z,9.85
2023-01-17T17:46:27.422Z,10.43
2023-01-17T17:48:56.382Z,10.57
2023-01-17T17:51:33.025Z,6.43
2023-01-17T17:54:02.668Z,7.50
2023-01-17T17:56:32.501Z,10.40
2023-01-17T17:59:01.351Z,8.80
2023-01-17T18:01:29.012Z,7.65
2023-01-17T18:04:00.947Z,8.45
2023-01-17T18:06:29.102Z,8.38
2023-01-17T18:08:56.498Z,7.57
2023-01-17T18:11:26.826Z,8.63
2023-01-17T18:13:56.448Z,7.03
2023-01-17T18:16:27.217Z,7.45
2023-01-17T18:18:57.715Z,7.20
2023-01-17T18:21:28.511Z,7.20
2023-01-17T18:24:20.241Z,8.93
2023-01-17T18:26:50.897Z,5.70
2023-01-17T18:29:20.063Z,5.18
2023-01-17T18:31:50.232Z,4.63
2023-01-17T18:34:29.459Z,3.22
2023-01-17T18:36:58.222Z,4.78
2023-01-17T18:39:28.420Z,3.63
2023-01-17T18:41:56.011Z,3.35
2023-01-17T18:44:23.457Z,5.00
2023-01-17T18:46:58.167Z,4.75
2023-01-17T18:49:25.612Z,3.42
2023-01-17T18:51:53.171Z,5.00
2023-01-17T18:54:20.837Z,6.03
2023-01-17T18:56:48.756Z,2.78
2023-01-17T18:59:18.580Z,2.92
2023-01-17T19:01:46.791Z,4.15
2023-01-17T19:04:15.954Z,4.22
2023-01-17T19:06:45.762Z,3.88
2023-01-17T19:09:14.817Z,4.40
2023-01-17T19:11:44.591Z,4.60
2023-01-17T19:14:12.991Z,4.20
2023-01-17T19:16:41.972Z,4.75
2023-01-17T19:19:14.912Z,4.40
2023-01-17T19:21:42.923Z,4.53
2023-01-17T19:24:13.331Z,5.13
2023-01-17T19:26:43.035Z,3.83
2023-01-17T19:29:10.787Z,4.35
2023-01-17T19:31:42.746Z,5.30
2023-01-17T19:34:13.893Z,3.38
2023-01-17T19:36:42.553Z,2.60
2023-01-17T19:39:10.503Z,6.05
2023-01-17T19:41:44.064Z,2.90
2023-01-17T19:44:13.428Z,3.55
2023-01-17T19:46:41.064Z,2.42
2023-01-17T19:49:09.572Z,5.13
2023-01-17T19:51:39.405Z,2.83
2023-01-17T19:54:07.978Z,4.20
2023-01-17T19:56:35.859Z,3.58
2023-01-17T19:59:03.463Z,2.92
2023-01-17T20:01:33.309Z,3.08
2023-01-17T20:04:02.439Z,5.70
2023-01-17T20:06:35.297Z,4.90
2023-01-17T20:09:04.092Z,2.85
2023-01-17T20:11:31.904Z,4.00
2023-01-17T20:14:00.429Z,5.75
2023-01-17T20:16:30.181Z,3.97
2023-01-17T20:18:58.578Z,2.30
2023-01-17T20:21:27.936Z,3.03
2023-01-17T20:23:56.464Z,2.38
2023-01-17T20:26:34.545Z,3.20
2023-01-17T20:29:06.877Z,3.60
2023-01-17T20:31:38.220Z,3.22
2023-01-17T20:34:07.314Z,4.47
2023-01-17T20:36:35.010Z,6.60
2023-01-17T20:39:04.713Z,7.93
2023-01-17T20:41:38.060Z,5.40
2023-01-17T20:44:07.512Z,5.57
2023-01-17T20:46:40.523Z,5.35
2023-01-17T20:49:15.657Z,5.20
2023-01-17T20:51:45.263Z,5.05
2023-01-17T20:54:15.122Z,5.60
2023-01-17T20:56:43.576Z,4.70
2023-01-17T20:59:17.176Z,4.32
2023-01-17T21:01:45.266Z,6.82
2023-01-17T21:04:13.108Z,5.68
2023-01-17T21:06:42.186Z,4.97
2023-01-17T21:09:13.038Z,6.05
2023-01-17T21:11:40.925Z,5.10
2023-01-17T21:14:08.295Z,5.20
2023-01-17T21:16:36.223Z,5.35
2023-01-17T21:19:03.723Z,6.85
2023-01-17T21:21:31.697Z,5.75
2023-01-17T21:23:59.860Z,8.65
2023-01-17T21:26:28.699Z,4.47
2023-01-17T21:28:56.628Z,4.40
2023-01-17T21:31:26.962Z,6.57
2023-01-17T21:33:56.755Z,5.72
2023-01-17T21:36:27.529Z,5.78
2023-01-17T21:38:57.211Z,6.25
2023-01-17T21:41:27.466Z,7.40
2023-01-17T21:44:03.475Z,6.03
2023-01-17T21:46:31.289Z,6.40
2023-01-17T21:48:58.561Z,7.70
2023-01-17T21:51:46.085Z,6.45
2023-01-17T21:54:13.467Z,7.45
2023-01-17T21:56:59.464Z,6.10
2023-01-17T21:59:26.831Z,7.00
2023-01-17T22:01:54.423Z,3.90
2023-01-17T22:04:21.854Z,5.70
2023-01-17T22:06:49.411Z,7.63
2023-01-17T22:09:16.773Z,7.30
2023-01-17T22:11:44.323Z,6.38
2023-01-17T22:14:11.690Z,5.70
2023-01-17T22:16:39.278Z,6.85
2023-01-17T22:19:06.674Z,5.18
2023-01-17T22:21:34.264Z,6.18
2023-01-17T22:24:01.630Z,5.13
2023-01-17T22:26:30.983Z,4.50
2023-01-17T22:29:02.414Z,4.47
2023-01-17T22:31:31.017Z,7.00
2023-01-17T22:34:04.055Z,7.38
2023-01-17T22:36:35.242Z,7.00
2023-01-17T22:39:02.493Z,7.22
2023-01-17T22:41:31.333Z,7.32
2023-01-17T22:44:02.164Z,7.68
2023-01-17T22:46:32.362Z,8.60
2023-01-17T22:49:00.335Z,10.43
2023-01-17T22:51:29.051Z,7.82
2023-01-17T22:53:59.195Z,9.23
2023-01-17T22:56:29.284Z,8.98
2023-01-17T22:58:58.586Z,8.98
2023-01-17T23:01:30.903Z,10.43
2023-01-17T23:04:00.731Z,10.55
2023-01-17T23:06:30.784Z,9.00
2023-01-17T23:09:04.157Z,7.97
2023-01-17T23:11:46.281Z,6.60
2023-01-17T23:14:19.535Z,6.03
2023-01-17T23:17:11.177Z,5.80
2023-01-17T23:19:52.965Z,7.15
2023-01-17T23:24:55.552Z,4.72
2023-01-17T23:27:54.958Z,5.60
2023-01-17T23:30:26.278Z,6.95
2023-01-17T23:32:56.809Z,6.22
2023-01-17T23:35:26.758Z,6.40
2023-01-17T23:38:13.337Z,6.97
2023-01-17T23:40:41.283Z,5.80
2023-01-17T23:43:24.080Z,9.10
2023-01-17T23:45:53.369Z,7.07
2023-01-17T23:48:23.980Z,8.70
2023-01-17T23:50:51.461Z,7.05
2023-01-17T23:53:23.321Z,7.38
2023-01-17T23:55:53.156Z,11.05
2023-01-17T23:58:25.287Z,7.18
